createdAt,value
2022-07-28T00:00:52.889Z,79.41
2022-07-28T00:01:52.992Z,79.61
2022-07-28T00:02:52.929Z,79.31
2022-07-28T00:03:52.863Z,78.91
2022-07-28T00:04:52.839Z,79.11
2022-07-28T00:05:52.831Z,79.31
2022-07-28T00:06:52.844Z,79.51
2022-07-28T00:07:52.854Z,79.72
2022-07-28T00:08:52.799Z,79.82
2022-07-28T00:09:58.255Z,79.11
2022-07-28T00:10:53.816Z,78.60
2022-07-28T00:11:54.570Z,78.91
2022-07-28T00:12:52.753Z,79.00
2022-07-28T00:13:52.749Z,79.21
2022-07-28T00:14:52.732Z,78.91
2022-07-28T00:15:52.789Z,78.33
2022-07-28T00:16:52.740Z,78.64
2022-07-28T00:17:52.703Z,79.35
2022-07-28T00:18:52.729Z,79.55
2022-07-28T00:19:52.672Z,79.04
2022-07-28T00:20:52.661Z,79.04
2022-07-28T00:21:52.641Z,79.35
2022-07-28T00:22:52.653Z,79.35
2022-07-28T00:23:52.667Z,79.85
2022-07-28T00:24:52.603Z,79.85
2022-07-28T00:25:52.596Z,80.06
2022-07-28T00:26:52.589Z,80.06
2022-07-28T00:27:52.620Z,80.16
2022-07-28T00:28:52.567Z,79.45
2022-07-28T00:29:52.630Z,79.96
2022-07-28T00:30:52.543Z,79.45
2022-07-28T00:31:52.676Z,79.25
2022-07-28T00:32:52.540Z,78.94
2022-07-28T00:33:52.551Z,79.69
2022-07-28T00:34:53.461Z,80.06
2022-07-28T00:35:52.488Z,80.06
2022-07-28T00:36:52.481Z,80.06
2022-07-28T00:37:52.557Z,79.35
2022-07-28T00:38:52.453Z,79.65
2022-07-28T00:39:52.440Z,79.79
2022-07-28T00:40:52.442Z,79.90
2022-07-28T00:41:52.434Z,80.40
2022-07-28T00:42:52.425Z,80.50
2022-07-28T00:43:52.454Z,80.71
2022-07-28T00:44:52.392Z,80.60
2022-07-28T00:45:52.384Z,80.19
2022-07-28T00:46:52.437Z,80.71
2022-07-28T00:47:52.376Z,80.71
2022-07-28T00:48:52.382Z,80.60
2022-07-28T00:49:52.335Z,80.91
2022-07-28T00:50:52.307Z,80.71
2022-07-28T00:51:52.367Z,80.60
2022-07-28T00:52:52.326Z,80.10
2022-07-28T00:53:52.298Z,79.90
2022-07-28T00:54:52.274Z,80.30
2022-07-28T00:56:03.687Z,80.71
2022-07-28T00:56:53.240Z,80.50
2022-07-28T00:57:52.253Z,80.60
2022-07-28T00:58:52.224Z,80.40
2022-07-28T00:59:52.212Z,81.86
2022-07-28T01:00:52.200Z,81.86
2022-07-28T01:01:53.339Z,81.62
2022-07-28T01:02:52.307Z,82.03
2022-07-28T01:03:52.177Z,81.56
2022-07-28T01:04:52.164Z,81.35
2022-07-28T01:05:52.143Z,80.33
2022-07-28T01:06:52.165Z,80.74
2022-07-28T01:07:52.138Z,80.74
2022-07-28T01:08:52.110Z,81.35
2022-07-28T01:09:52.167Z,81.66
2022-07-28T01:10:52.091Z,81.56
2022-07-28T01:11:52.074Z,81.90
2022-07-28T01:12:52.091Z,82.10
2022-07-28T01:13:52.055Z,82.20
2022-07-28T01:14:52.048Z,82.81
2022-07-28T01:15:52.085Z,82.98
2022-07-28T01:16:52.034Z,82.81
2022-07-28T01:17:52.018Z,83.01
2022-07-28T01:18:52.004Z,83.73
2022-07-28T01:19:51.981Z,82.81
2022-07-28T01:20:52.045Z,81.59
2022-07-28T01:21:51.972Z,81.70
2022-07-28T01:22:51.960Z,81.29
2022-07-28T01:23:51.970Z,80.82
2022-07-28T01:24:51.941Z,80.47
2022-07-28T01:25:51.927Z,80.68
2022-07-28T01:26:51.908Z,81.90
2022-07-28T01:27:51.916Z,82.10
2022-07-28T01:28:51.970Z,82.61
2022-07-28T01:29:51.886Z,83.01
2022-07-28T01:30:51.924Z,83.42
2022-07-28T01:31:51.837Z,82.51
2022-07-28T01:32:51.858Z,83.32
2022-07-28T01:33:51.855Z,83.01
2022-07-28T01:34:51.807Z,84.03
2022-07-28T01:35:51.797Z,84.03
2022-07-28T01:36:51.800Z,84.03
2022-07-28T01:37:51.827Z,83.32
2022-07-28T01:38:51.780Z,83.42
2022-07-28T01:39:51.747Z,83.42
2022-07-28T01:40:51.751Z,84.07
2022-07-28T01:41:51.731Z,84.13
2022-07-28T01:42:51.719Z,84.44
2022-07-28T01:43:51.700Z,85.09
2022-07-28T01:44:51.708Z,84.88
2022-07-28T01:45:51.727Z,84.38
2022-07-28T01:46:51.763Z,84.17
2022-07-28T01:47:51.863Z,84.07
2022-07-28T01:48:51.728Z,83.87
2022-07-28T01:49:51.731Z,85.09
2022-07-28T01:50:51.621Z,84.07
2022-07-28T01:51:51.608Z,83.67
2022-07-28T01:52:51.610Z,83.26
2022-07-28T01:53:51.593Z,83.36
2022-07-28T01:54:51.580Z,83.36
2022-07-28T01:55:51.578Z,83.87
2022-07-28T01:56:51.624Z,83.76
2022-07-28T01:57:51.537Z,83.36
2022-07-28T01:58:51.535Z,83.46
2022-07-28T01:59:51.598Z,83.56
2022-07-28T02:00:51.526Z,83.06
2022-07-28T02:01:51.560Z,83.36
2022-07-28T02:02:51.484Z,82.54
2022-07-28T02:03:51.545Z,82.54
2022-07-28T02:04:51.580Z,83.26
2022-07-28T02:05:51.474Z,81.43
2022-07-28T02:06:51.430Z,82.34
2022-07-28T02:07:51.517Z,82.95
2022-07-28T02:08:51.417Z,83.06
2022-07-28T02:09:51.411Z,83.15
2022-07-28T02:10:51.420Z,83.06
2022-07-28T02:11:51.388Z,83.26
2022-07-28T02:12:51.382Z,83.36
2022-07-28T02:13:51.368Z,83.26
2022-07-28T02:14:51.352Z,83.67
2022-07-28T02:15:51.405Z,83.56
2022-07-28T02:16:51.324Z,83.97
2022-07-28T02:17:51.325Z,83.87
2022-07-28T02:18:51.299Z,84.17
2022-07-28T02:19:51.369Z,84.28
2022-07-28T02:20:51.291Z,85.19
2022-07-28T02:21:51.259Z,84.72
2022-07-28T02:22:52.080Z,85.13
2022-07-28T02:23:51.240Z,84.52
2022-07-28T02:24:51.224Z,85.03
2022-07-28T02:25:51.293Z,84.52
2022-07-28T02:26:51.201Z,83.40
2022-07-28T02:27:51.206Z,83.40
2022-07-28T02:28:51.175Z,83.29
2022-07-28T02:29:51.931Z,83.40
2022-07-28T02:30:51.246Z,83.50
2022-07-28T02:31:51.141Z,83.84
2022-07-28T02:32:51.132Z,84.01
2022-07-28T02:33:59.910Z,83.91
2022-07-28T02:34:52.111Z,84.01
2022-07-28T02:35:51.114Z,83.84
2022-07-28T02:36:51.108Z,84.21
2022-07-28T02:37:51.067Z,84.25
2022-07-28T02:38:51.067Z,85.27
2022-07-28T02:39:57.476Z,84.82
2022-07-28T02:40:52.099Z,84.72
2022-07-28T02:41:51.031Z,84.92
2022-07-28T02:42:51.030Z,85.13
2022-07-28T02:43:51.002Z,85.17
2022-07-28T02:44:51.000Z,84.97
2022-07-28T02:45:51.080Z,84.86
2022-07-28T02:46:50.979Z,85.27
2022-07-28T02:47:51.024Z,83.54
2022-07-28T02:48:50.972Z,83.54
2022-07-28T02:49:50.940Z,84.15
2022-07-28T02:50:50.921Z,85.17
2022-07-28T02:51:50.930Z,84.76
2022-07-28T02:52:50.902Z,83.74
2022-07-28T02:53:50.890Z,84.25
2022-07-28T02:54:50.889Z,85.17
2022-07-28T02:55:50.866Z,84.86
2022-07-28T02:56:53.286Z,85.00
2022-07-28T02:57:54.735Z,85.47
2022-07-28T02:58:51.843Z,86.19
2022-07-28T02:59:50.824Z,85.98
2022-07-28T03:00:50.814Z,85.88
2022-07-28T03:01:50.935Z,85.68
2022-07-28T03:02:50.805Z,86.19
2022-07-28T03:03:50.777Z,86.08
2022-07-28T03:04:50.814Z,86.08
2022-07-28T03:05:50.763Z,86.13
2022-07-28T03:06:50.754Z,86.13
2022-07-28T03:07:51.442Z,87.00
2022-07-28T03:08:50.718Z,86.80
2022-07-28T03:09:50.745Z,87.20
2022-07-28T03:10:50.711Z,87.20
2022-07-28T03:11:50.701Z,87.45
2022-07-28T03:12:50.673Z,87.24
2022-07-28T03:13:50.656Z,87.45
2022-07-28T03:14:50.653Z,87.14
2022-07-28T03:15:50.649Z,87.04
2022-07-28T03:16:55.362Z,87.14
2022-07-28T03:17:51.621Z,87.35
2022-07-28T03:18:50.615Z,87.75
2022-07-28T03:19:50.590Z,87.35
2022-07-28T03:20:50.658Z,87.35
2022-07-28T03:21:50.583Z,86.94
2022-07-28T03:22:50.552Z,87.24
2022-07-28T03:23:50.588Z,87.14
2022-07-28T03:24:50.536Z,87.45
2022-07-28T03:25:50.529Z,88.06
2022-07-28T03:26:50.540Z,87.75
2022-07-28T03:27:50.507Z,87.75
2022-07-28T03:28:50.491Z,87.04
2022-07-28T03:29:50.481Z,87.35
2022-07-28T03:30:50.644Z,87.04
2022-07-28T03:31:50.485Z,86.74
2022-07-28T03:32:50.451Z,87.35
2022-07-28T03:33:50.432Z,87.85
2022-07-28T03:34:50.571Z,87.65
2022-07-28T03:35:50.433Z,87.55
2022-07-28T03:36:50.414Z,87.55
2022-07-28T03:37:50.399Z,87.55
2022-07-28T03:38:50.380Z,88.36
2022-07-28T03:39:50.364Z,88.16
2022-07-28T03:40:50.360Z,87.96
2022-07-28T03:41:50.359Z,88.46
2022-07-28T03:42:50.347Z,88.16
2022-07-28T03:43:50.413Z,88.16
2022-07-28T03:44:50.312Z,88.06
2022-07-28T03:45:50.401Z,88.06
2022-07-28T03:46:50.320Z,87.35
2022-07-28T03:47:50.301Z,87.45
2022-07-28T03:48:50.333Z,87.35
2022-07-28T03:49:50.253Z,87.75
2022-07-28T03:50:50.256Z,87.45
2022-07-28T03:51:50.234Z,87.45
2022-07-28T03:52:50.248Z,87.35
2022-07-28T03:53:50.207Z,87.35
2022-07-28T03:54:50.196Z,87.14
2022-07-28T03:55:50.187Z,86.83
2022-07-28T03:56:50.194Z,87.24
2022-07-28T03:57:50.177Z,86.94
2022-07-28T03:58:50.152Z,86.94
2022-07-28T03:59:50.149Z,86.83
2022-07-28T04:00:50.203Z,87.24
2022-07-28T04:01:50.221Z,87.41
2022-07-28T04:02:50.168Z,87.10
2022-07-28T04:03:50.124Z,87.14
2022-07-28T04:04:50.081Z,87.10
2022-07-28T04:05:50.073Z,87.30
2022-07-28T04:06:50.055Z,86.80
2022-07-28T04:07:50.060Z,87.51
2022-07-28T04:08:50.044Z,87.61
2022-07-28T04:09:50.047Z,87.61
2022-07-28T04:10:50.028Z,87.71
2022-07-28T04:11:50.022Z,87.51
2022-07-28T04:12:50.021Z,87.10
2022-07-28T04:13:49.986Z,87.30
2022-07-28T04:14:50.089Z,87.41
2022-07-28T04:15:49.963Z,87.41
2022-07-28T04:16:50.015Z,86.59
2022-07-28T04:17:50.044Z,85.88
2022-07-28T04:18:49.939Z,86.19
2022-07-28T04:19:49.921Z,85.98
2022-07-28T04:20:49.904Z,85.68
2022-07-28T04:21:49.902Z,85.98
2022-07-28T04:22:49.919Z,86.19
2022-07-28T04:23:49.868Z,86.08
2022-07-28T04:24:49.868Z,86.08
2022-07-28T04:25:49.851Z,85.88
2022-07-28T04:26:49.901Z,85.58
2022-07-28T04:27:49.844Z,86.08
2022-07-28T04:28:49.821Z,85.88
2022-07-28T04:29:49.810Z,85.68
2022-07-28T04:30:49.850Z,85.58
2022-07-28T04:31:49.781Z,86.45
2022-07-28T04:32:49.787Z,85.88
2022-07-28T04:33:49.764Z,86.19
2022-07-28T04:34:49.745Z,85.74
2022-07-28T04:35:49.840Z,85.78
2022-07-28T04:36:49.721Z,85.84
2022-07-28T04:37:49.723Z,85.64
2022-07-28T04:38:49.697Z,85.64
2022-07-28T04:39:49.690Z,85.84
2022-07-28T04:40:49.690Z,85.64
2022-07-28T04:41:49.665Z,86.04
2022-07-28T04:42:49.664Z,85.84
2022-07-28T04:43:49.702Z,85.84
2022-07-28T04:44:49.626Z,85.64
2022-07-28T04:45:53.514Z,85.13
2022-07-28T04:46:49.621Z,86.00
2022-07-28T04:47:49.612Z,84.92
2022-07-28T04:48:49.641Z,85.19
2022-07-28T04:49:49.569Z,85.43
2022-07-28T04:50:49.564Z,85.39
2022-07-28T04:51:49.556Z,85.23
2022-07-28T04:52:49.551Z,84.88
2022-07-28T04:53:49.614Z,85.39
2022-07-28T04:54:49.513Z,85.39
2022-07-28T04:55:49.599Z,85.70
2022-07-28T04:56:49.505Z,85.60
2022-07-28T04:57:49.492Z,85.49
2022-07-28T04:58:49.467Z,85.80
2022-07-28T04:59:49.509Z,86.00
2022-07-28T05:00:50.391Z,86.00
2022-07-28T05:01:49.541Z,85.80
2022-07-28T05:02:49.445Z,86.00
2022-07-28T05:03:49.402Z,86.47
2022-07-28T05:04:49.504Z,86.88
2022-07-28T05:05:52.878Z,86.57
2022-07-28T05:06:50.465Z,85.86
2022-07-28T05:07:49.379Z,86.07
2022-07-28T05:08:49.353Z,86.07
2022-07-28T05:09:49.352Z,86.07
2022-07-28T05:10:49.339Z,85.96
2022-07-28T05:11:49.316Z,86.07
2022-07-28T05:12:49.334Z,86.07
2022-07-28T05:13:49.304Z,85.76
2022-07-28T05:14:49.370Z,86.27
2022-07-28T05:15:49.269Z,86.27
2022-07-28T05:16:49.329Z,85.55
2022-07-28T05:17:49.259Z,86.43
2022-07-28T05:18:49.233Z,86.22
2022-07-28T05:19:49.389Z,85.55
2022-07-28T05:20:49.218Z,85.66
2022-07-28T05:21:49.201Z,85.66
2022-07-28T05:22:49.265Z,85.72
2022-07-28T05:23:49.180Z,85.31
2022-07-28T05:24:49.172Z,85.52
2022-07-28T05:25:49.153Z,85.52
2022-07-28T05:26:49.167Z,85.47
2022-07-28T05:27:49.146Z,85.47
2022-07-28T05:28:49.133Z,85.72
2022-07-28T05:29:51.449Z,84.77
2022-07-28T05:30:49.097Z,85.47
2022-07-28T05:31:49.158Z,85.47
2022-07-28T05:32:49.090Z,85.07
2022-07-28T05:33:49.054Z,84.97
2022-07-28T05:34:49.045Z,85.38
2022-07-28T05:35:49.036Z,85.47
2022-07-28T05:36:49.022Z,85.27
2022-07-28T05:37:49.019Z,85.27
2022-07-28T05:38:49.002Z,85.24
2022-07-28T05:39:48.987Z,85.38
2022-07-28T05:40:48.970Z,85.24
2022-07-28T05:41:48.973Z,85.33
2022-07-28T05:42:48.972Z,85.24
2022-07-28T05:43:48.938Z,85.24
2022-07-28T05:44:48.930Z,84.63
2022-07-28T05:45:49.076Z,84.58
2022-07-28T05:46:48.904Z,84.58
2022-07-28T05:47:48.908Z,84.78
2022-07-28T05:48:48.956Z,84.78
2022-07-28T05:49:48.869Z,84.48
2022-07-28T05:50:48.867Z,84.64
2022-07-28T05:51:48.854Z,84.04
2022-07-28T05:52:48.854Z,84.08
2022-07-28T05:53:48.826Z,83.73
2022-07-28T05:54:48.810Z,84.95
2022-07-28T05:56:00.165Z,84.64
2022-07-28T05:56:50.450Z,84.64
2022-07-28T05:57:48.797Z,84.55
2022-07-28T05:58:48.770Z,83.23
2022-07-28T05:59:48.779Z,82.82
2022-07-28T06:00:48.798Z,83.23
2022-07-28T06:01:48.839Z,83.09
2022-07-28T06:02:48.837Z,83.39
2022-07-28T06:04:03.456Z,83.18
2022-07-28T06:04:49.699Z,83.49
2022-07-28T06:06:13.792Z,82.98
2022-07-28T06:06:49.680Z,83.09
2022-07-28T06:07:48.685Z,82.89
2022-07-28T06:08:48.660Z,83.45
2022-07-28T06:09:48.648Z,83.18
2022-07-28T06:10:48.639Z,82.89
2022-07-28T06:11:48.619Z,82.03
2022-07-28T06:12:48.634Z,82.03
2022-07-28T06:13:48.609Z,81.63
2022-07-28T06:14:48.590Z,81.32
2022-07-28T06:15:48.575Z,81.12
2022-07-28T06:16:48.600Z,81.32
2022-07-28T06:17:48.571Z,81.23
2022-07-28T06:18:48.542Z,80.47
2022-07-28T06:19:48.537Z,79.67
2022-07-28T06:20:48.514Z,79.36
2022-07-28T06:21:48.506Z,78.35
2022-07-28T06:22:48.508Z,77.95
2022-07-28T06:23:48.482Z,77.64
2022-07-28T06:24:48.501Z,77.14
2022-07-28T06:25:48.474Z,77.54
2022-07-28T06:26:48.452Z,77.14
2022-07-28T06:27:48.452Z,77.10
2022-07-28T06:28:48.427Z,77.40
2022-07-28T06:29:48.418Z,77.20
2022-07-28T06:30:48.406Z,76.79
2022-07-28T06:31:48.463Z,76.59
2022-07-28T06:32:48.409Z,76.59
2022-07-28T06:33:48.370Z,77.37
2022-07-28T06:34:48.369Z,76.97
2022-07-28T06:35:51.437Z,76.76
2022-07-28T06:36:48.332Z,76.76
2022-07-28T06:37:48.334Z,76.66
2022-07-28T06:38:48.314Z,76.56
2022-07-28T06:39:48.306Z,76.15
2022-07-28T06:40:48.301Z,76.35
2022-07-28T06:41:48.299Z,76.52
2022-07-28T06:42:48.295Z,76.32
2022-07-28T06:43:48.254Z,76.22
2022-07-28T06:44:58.867Z,75.61
2022-07-28T06:45:49.246Z,75.17
2022-07-28T06:46:48.321Z,75.41
2022-07-28T06:47:48.233Z,75.37
2022-07-28T06:48:48.262Z,75.57
2022-07-28T06:49:48.190Z,76.48
2022-07-28T06:50:48.178Z,73.96
2022-07-28T06:51:48.187Z,72.55
2022-07-28T06:52:48.166Z,72.24
2022-07-28T06:53:48.198Z,71.64
2022-07-28T06:54:48.815Z,73.05
2022-07-28T06:55:49.971Z,75.24
2022-07-28T06:56:49.499Z,77.46
2022-07-28T06:57:48.109Z,79.48
2022-07-28T06:58:48.100Z,79.38
2022-07-28T06:59:48.071Z,79.88
2022-07-28T07:00:48.149Z,81.84
2022-07-28T07:01:48.055Z,83.22
2022-07-28T07:02:48.061Z,82.85
2022-07-28T07:03:48.098Z,82.65
2022-07-28T07:04:48.078Z,84.67
2022-07-28T07:05:50.086Z,84.97
2022-07-28T07:06:49.013Z,84.87
2022-07-28T07:07:48.008Z,84.51
2022-07-28T07:08:47.976Z,84.61
2022-07-28T07:09:47.961Z,84.91
2022-07-28T07:10:47.939Z,84.91
2022-07-28T07:11:47.936Z,86.22
2022-07-28T07:12:47.939Z,86.77
2022-07-28T07:13:47.914Z,87.08
2022-07-28T07:14:47.902Z,86.77
2022-07-28T07:15:47.967Z,86.73
2022-07-28T07:16:47.995Z,86.07
2022-07-28T07:17:47.875Z,85.36
2022-07-28T07:18:47.855Z,86.47
2022-07-28T07:19:47.844Z,85.82
2022-07-28T07:20:47.838Z,86.43
2022-07-28T07:21:47.819Z,86.53
2022-07-28T07:22:47.862Z,87.13
2022-07-28T07:23:47.809Z,87.13
2022-07-28T07:24:47.786Z,88.04
2022-07-28T07:25:47.781Z,88.04
2022-07-28T07:26:47.785Z,88.35
2022-07-28T07:27:47.772Z,88.25
2022-07-28T07:28:47.744Z,88.35
2022-07-28T07:29:47.731Z,88.65
2022-07-28T07:30:47.715Z,88.96
2022-07-28T07:31:47.751Z,89.16
2022-07-28T07:32:48.709Z,89.87
2022-07-28T07:33:47.681Z,89.97
2022-07-28T07:34:47.671Z,89.76
2022-07-28T07:35:47.656Z,89.66
2022-07-28T07:36:47.647Z,89.97
2022-07-28T07:37:47.657Z,90.47
2022-07-28T07:38:47.624Z,90.72
2022-07-28T07:39:47.617Z,91.18
2022-07-28T07:40:47.621Z,91.53
2022-07-28T07:41:47.600Z,91.28
2022-07-28T07:42:47.608Z,91.89
2022-07-28T07:43:47.932Z,91.78
2022-07-28T07:44:50.433Z,91.89
2022-07-28T07:45:47.551Z,91.08
2022-07-28T07:46:47.609Z,91.69
2022-07-28T07:47:47.547Z,91.58
2022-07-28T07:48:47.579Z,91.69
2022-07-28T07:49:47.499Z,91.73
2022-07-28T07:50:51.831Z,91.49
2022-07-28T07:51:48.477Z,90.47
2022-07-28T07:52:47.487Z,90.21
2022-07-28T07:53:47.454Z,90.17
2022-07-28T07:54:47.445Z,90.31
2022-07-28T07:55:47.439Z,89.40
2022-07-28T07:56:47.421Z,89.61
2022-07-28T07:57:47.443Z,90.17
2022-07-28T07:58:47.401Z,90.27
2022-07-28T07:59:47.410Z,90.27
2022-07-28T08:00:47.377Z,88.81
2022-07-28T08:01:47.401Z,88.31
2022-07-28T08:02:47.400Z,87.90
2022-07-28T08:03:50.120Z,87.40
2022-07-28T08:04:47.702Z,86.19
2022-07-28T08:05:47.325Z,82.04
2022-07-28T08:06:47.307Z,83.92
2022-07-28T08:07:47.323Z,84.53
2022-07-28T08:08:48.552Z,84.79
2022-07-28T08:09:47.273Z,85.50
2022-07-28T08:10:47.311Z,84.89
2022-07-28T08:11:47.251Z,83.44
2022-07-28T08:12:47.255Z,82.64
2022-07-28T08:13:47.230Z,82.53
2022-07-28T08:14:47.896Z,81.93
2022-07-28T08:15:47.282Z,79.30
2022-07-28T08:16:47.196Z,75.87
2022-07-28T08:17:47.209Z,74.43
2022-07-28T08:18:47.181Z,76.20
2022-07-28T08:19:47.244Z,78.69
2022-07-28T08:20:47.161Z,79.25
2022-07-28T08:21:47.149Z,79.76
2022-07-28T08:22:47.209Z,80.16
2022-07-28T08:23:47.123Z,79.18
2022-07-28T08:24:47.109Z,77.87
2022-07-28T08:25:47.104Z,77.77
2022-07-28T08:26:47.089Z,78.38
2022-07-28T08:27:47.169Z,75.92
2022-07-28T08:28:47.196Z,78.23
2022-07-28T08:29:47.044Z,79.30
2022-07-28T08:30:47.036Z,76.35
2022-07-28T08:31:47.091Z,72.13
2022-07-28T08:32:47.036Z,71.83
2022-07-28T08:33:53.684Z,72.10
2022-07-28T08:34:47.998Z,70.56
2022-07-28T08:35:46.979Z,70.32
2022-07-28T08:36:46.970Z,68.02
2022-07-28T08:37:47.038Z,66.99
2022-07-28T08:38:46.967Z,67.79
2022-07-28T08:39:46.950Z,67.85
2022-07-28T08:40:46.915Z,67.22
2022-07-28T08:41:46.905Z,67.29
2022-07-28T08:42:46.917Z,65.99
2022-07-28T08:43:46.900Z,64.15
2022-07-28T08:44:46.981Z,65.45
2022-07-28T08:45:46.857Z,66.13
2022-07-28T08:46:46.979Z,60.92
2022-07-28T08:48:07.358Z,60.69
2022-07-28T08:48:48.051Z,63.46
2022-07-28T08:49:46.823Z,64.23
2022-07-28T08:50:46.802Z,62.97
2022-07-28T08:51:46.790Z,58.06
2022-07-28T08:52:46.801Z,62.01
2022-07-28T08:53:46.791Z,59.39
2022-07-28T08:54:46.762Z,59.36
2022-07-28T08:55:46.749Z,58.17
2022-07-28T08:56:47.687Z,54.56
2022-07-28T08:57:46.754Z,52.67
2022-07-28T08:58:46.726Z,56.85
2022-07-28T08:59:46.708Z,57.28
2022-07-28T09:00:46.695Z,58.27
2022-07-28T09:01:46.715Z,59.69
2022-07-28T09:02:46.894Z,59.59
2022-07-28T09:03:47.657Z,58.50
2022-07-28T09:04:46.654Z,55.13
2022-07-28T09:05:46.638Z,54.57
2022-07-28T09:06:46.619Z,54.96
2022-07-28T09:07:49.048Z,61.74
2022-07-28T09:08:47.601Z,57.56
2022-07-28T09:09:46.597Z,52.94
2022-07-28T09:10:46.578Z,51.97
2022-07-28T09:11:46.707Z,56.85
2022-07-28T09:12:46.581Z,58.25
2022-07-28T09:13:48.784Z,56.93
2022-07-28T09:14:47.533Z,53.81
2022-07-28T09:15:46.684Z,56.57
2022-07-28T09:16:46.512Z,54.36
2022-07-28T09:17:46.548Z,52.94
2022-07-28T09:18:46.498Z,54.78
2022-07-28T09:19:46.474Z,52.99
2022-07-28T09:20:46.461Z,51.60
2022-07-28T09:21:46.455Z,52.76
2022-07-28T09:22:46.461Z,49.88
2022-07-28T09:23:46.432Z,48.39
2022-07-28T09:24:46.427Z,53.46
2022-07-28T09:25:46.410Z,48.19
2022-07-28T09:26:46.409Z,48.39
2022-07-28T09:27:46.429Z,50.20
2022-07-28T09:28:46.394Z,50.98
2022-07-28T09:29:46.366Z,48.27
2022-07-28T09:30:54.384Z,47.77
2022-07-28T09:31:49.370Z,46.16
2022-07-28T09:32:47.355Z,52.19
2022-07-28T09:33:46.329Z,51.47
2022-07-28T09:34:46.319Z,49.96
2022-07-28T09:35:46.301Z,49.86
2022-07-28T09:36:46.324Z,47.46
2022-07-28T09:37:46.326Z,46.07
2022-07-28T09:38:46.326Z,45.26
2022-07-28T09:39:46.337Z,48.03
2022-07-28T09:40:46.308Z,46.94
2022-07-28T09:41:46.262Z,48.23
2022-07-28T09:42:46.228Z,46.45
2022-07-28T09:43:48.797Z,45.43
2022-07-28T09:45:05.798Z,49.00
2022-07-28T09:45:47.187Z,49.77
2022-07-28T09:46:46.379Z,50.66
2022-07-28T09:47:46.460Z,49.59
2022-07-28T09:48:46.404Z,47.83
2022-07-28T09:49:46.211Z,47.53
2022-07-28T09:50:46.145Z,48.23
2022-07-28T09:51:46.117Z,47.93
2022-07-28T09:52:46.134Z,47.04
2022-07-28T09:53:46.097Z,50.58
2022-07-28T09:54:46.097Z,45.73
2022-07-28T09:55:46.081Z,45.61
2022-07-28T09:56:46.080Z,44.60
2022-07-28T09:57:46.282Z,43.91
2022-07-28T09:58:46.052Z,40.15
2022-07-28T09:59:50.467Z,44.09
2022-07-28T10:00:47.021Z,44.36
2022-07-28T10:01:46.112Z,44.22
2022-07-28T10:02:46.066Z,43.70
2022-07-28T10:03:45.991Z,45.26
2022-07-28T10:04:45.984Z,43.15
2022-07-28T10:05:49.482Z,42.54
2022-07-28T10:06:46.958Z,42.32
2022-07-28T10:07:45.959Z,41.11
2022-07-28T10:08:45.945Z,43.87
2022-07-28T10:09:45.928Z,38.15
2022-07-28T10:10:45.917Z,36.97
2022-07-28T10:11:45.929Z,36.18
2022-07-28T10:12:45.911Z,41.39
2022-07-28T10:13:45.900Z,40.51
2022-07-28T10:14:45.868Z,40.61
2022-07-28T10:15:50.872Z,43.63
2022-07-28T10:16:46.854Z,41.96
2022-07-28T10:17:45.859Z,40.39
2022-07-28T10:18:45.829Z,40.51
2022-07-28T10:19:45.835Z,43.75
2022-07-28T10:20:45.821Z,42.02
2022-07-28T10:21:45.810Z,41.06
2022-07-28T10:22:45.816Z,42.54
2022-07-28T10:23:45.778Z,39.39
2022-07-28T10:24:45.785Z,42.54
2022-07-28T10:25:45.769Z,43.62
2022-07-28T10:26:45.747Z,40.47
2022-07-28T10:27:45.753Z,40.66
2022-07-28T10:28:45.726Z,42.16
2022-07-28T10:29:45.713Z,43.84
2022-07-28T10:30:45.752Z,44.53
2022-07-28T10:31:45.704Z,41.99
2022-07-28T10:32:45.713Z,45.63
2022-07-28T10:33:45.678Z,39.60
2022-07-28T10:34:45.656Z,42.04
2022-07-28T10:35:54.295Z,44.51
2022-07-28T10:36:46.653Z,42.24
2022-07-28T10:37:45.652Z,40.66
2022-07-28T10:38:45.633Z,40.96
2022-07-28T10:39:45.609Z,41.06
2022-07-28T10:40:45.596Z,43.15
2022-07-28T10:41:45.593Z,44.23
2022-07-28T10:42:45.598Z,45.63
2022-07-28T10:43:45.814Z,44.67
2022-07-28T10:44:45.560Z,45.06
2022-07-28T10:46:04.989Z,42.13
2022-07-28T10:46:46.619Z,47.47
2022-07-28T10:47:45.534Z,44.02
2022-07-28T10:48:45.603Z,41.95
2022-07-28T10:49:45.495Z,48.07
2022-07-28T10:50:45.488Z,45.72
2022-07-28T10:52:02.383Z,48.02
2022-07-28T10:52:49.857Z,44.56
2022-07-28T10:53:45.465Z,44.28
2022-07-28T10:54:45.449Z,41.69
2022-07-28T10:55:45.437Z,47.64
2022-07-28T10:56:45.426Z,48.33
2022-07-28T10:57:45.442Z,45.79
2022-07-28T10:58:46.396Z,43.98
2022-07-28T10:59:45.396Z,46.48
2022-07-28T11:00:55.359Z,43.79
2022-07-28T11:01:48.931Z,44.01
2022-07-28T11:02:45.524Z,44.31
2022-07-28T11:03:45.475Z,42.05
2022-07-28T11:04:45.334Z,42.17
2022-07-28T11:05:45.325Z,41.87
2022-07-28T11:06:45.315Z,40.50
2022-07-28T11:07:45.327Z,41.61
2022-07-28T11:08:47.667Z,45.60
2022-07-28T11:09:45.275Z,43.02
2022-07-28T11:10:45.278Z,46.12
2022-07-28T11:11:45.260Z,44.63
2022-07-28T11:12:45.270Z,45.42
2022-07-28T11:13:45.254Z,46.51
2022-07-28T11:14:46.225Z,49.21
2022-07-28T11:15:45.211Z,49.91
2022-07-28T11:16:45.243Z,50.33
2022-07-28T11:17:45.248Z,47.95
2022-07-28T11:18:45.175Z,48.17
2022-07-28T11:20:25.963Z,52.26
2022-07-28T11:20:46.156Z,51.50
2022-07-28T11:21:47.708Z,50.80
2022-07-28T11:22:46.177Z,48.14
2022-07-28T11:23:46.567Z,51.42
2022-07-28T11:24:45.147Z,50.13
2022-07-28T11:25:45.124Z,45.78
2022-07-28T11:26:45.084Z,47.66
2022-07-28T11:27:45.247Z,51.84
2022-07-28T11:28:45.066Z,52.24
2022-07-28T11:29:45.066Z,52.72
2022-07-28T11:30:45.089Z,49.13
2022-07-28T11:31:45.030Z,51.60
2022-07-28T11:32:45.038Z,46.13
2022-07-28T11:33:46.741Z,45.43
2022-07-28T11:34:44.998Z,47.02
2022-07-28T11:35:45.006Z,46.11
2022-07-28T11:36:44.977Z,44.12
2022-07-28T11:37:44.991Z,44.70
2022-07-28T11:38:44.957Z,47.38
2022-07-28T11:39:45.395Z,49.16
2022-07-28T11:40:44.951Z,47.67
2022-07-28T11:41:44.930Z,46.95
2022-07-28T11:42:44.902Z,44.67
2022-07-28T11:43:44.941Z,47.65
2022-07-28T11:44:44.883Z,48.52
2022-07-28T11:45:52.710Z,48.22
2022-07-28T11:46:45.870Z,53.68
2022-07-28T11:47:45.851Z,51.40
2022-07-28T11:48:45.208Z,48.82
2022-07-28T11:49:44.869Z,50.18
2022-07-28T11:50:44.821Z,52.26
2022-07-28T11:51:51.341Z,48.40
2022-07-28T11:52:45.795Z,49.19
2022-07-28T11:53:44.784Z,49.88
2022-07-28T11:54:44.775Z,49.86
2022-07-28T11:55:55.160Z,49.57
2022-07-28T11:56:45.754Z,49.76
2022-07-28T11:57:44.761Z,45.70
2022-07-28T11:58:44.728Z,46.39
2022-07-28T11:59:44.724Z,46.02
2022-07-28T12:00:44.719Z,48.10
2022-07-28T12:01:44.739Z,45.54
2022-07-28T12:02:44.768Z,49.04
2022-07-28T12:03:50.311Z,52.31
2022-07-28T12:04:45.703Z,52.61
2022-07-28T12:05:44.654Z,49.63
2022-07-28T12:06:51.071Z,49.56
2022-07-28T12:07:45.669Z,51.72
2022-07-28T12:08:44.624Z,50.03
2022-07-28T12:09:44.613Z,51.72
2022-07-28T12:10:54.587Z,51.23
2022-07-28T12:11:45.584Z,45.37
2022-07-28T12:12:44.583Z,45.56
2022-07-28T12:13:44.591Z,44.27
2022-07-28T12:14:44.566Z,49.11
2022-07-28T12:15:44.547Z,48.72
2022-07-28T12:16:44.676Z,46.86
2022-07-28T12:17:44.513Z,48.05
2022-07-28T12:18:44.537Z,49.14
2022-07-28T12:19:44.512Z,49.04
2022-07-28T12:20:44.484Z,48.14
2022-07-28T12:21:46.056Z,52.42
2022-07-28T12:22:44.462Z,50.75
2022-07-28T12:23:46.185Z,51.54
2022-07-28T12:24:46.406Z,49.66
2022-07-28T12:25:44.445Z,49.66
2022-07-28T12:26:47.329Z,48.19
2022-07-28T12:27:44.756Z,47.57
2022-07-28T12:28:44.388Z,49.76
2022-07-28T12:29:49.429Z,50.45
2022-07-28T12:30:45.391Z,53.91
2022-07-28T12:31:44.459Z,51.23
2022-07-28T12:32:44.351Z,49.04
2022-07-28T12:33:44.327Z,47.55
2022-07-28T12:34:44.331Z,49.81
2022-07-28T12:35:44.313Z,46.53
2022-07-28T12:36:44.335Z,45.45
2022-07-28T12:37:44.297Z,46.44
2022-07-28T12:38:44.287Z,48.05
2022-07-28T12:39:44.314Z,47.35
2022-07-28T12:40:44.262Z,51.42
2022-07-28T12:41:44.240Z,51.42
2022-07-28T12:42:44.246Z,49.04
2022-07-28T12:43:44.222Z,47.16
2022-07-28T12:44:44.241Z,46.26
2022-07-28T12:45:44.241Z,45.67
2022-07-28T12:46:44.196Z,46.06
2022-07-28T12:47:44.179Z,47.75
2022-07-28T12:48:44.265Z,51.52
2022-07-28T12:49:44.166Z,45.34
2022-07-28T12:50:44.158Z,46.66
2022-07-28T12:51:44.144Z,47.85
2022-07-28T12:52:44.127Z,45.96